sensor_id;sensor_type;location;lat;lon;timestamp;pressure;altitude;pressure_sealevel;temperature;humidity
51053;BME280;37093;37.716;-122.060;2022-07-09T00:02:06;100071.65;;;29.94;24.56
51053;BME280;37093;37.716;-122.060;2022-07-09T00:04:34;100068.43;;;29.56;25.61
51053;BME280;37093;37.716;-122.060;2022-07-09T00:07:03;100065.46;;;29.48;25.61
51053;BME280;37093;37.716;-122.060;2022-07-09T00:09:31;100073.48;;;29.17;25.63
51053;BME280;37093;37.716;-122.060;2022-07-09T00:12:00;100071.95;;;29.51;25.64
51053;BME280;37093;37.716;-122.060;2022-07-09T00:14:28;100075.41;;;29.42;25.92
51053;BME280;37093;37.716;-122.060;2022-07-09T00:16:57;100076.43;;;29.01;26.30
51053;BME280;37093;37.716;-122.060;2022-07-09T00:19:25;100073.19;;;29.33;25.68
51053;BME280;37093;37.716;-122.060;2022-07-09T00:21:55;100074.92;;;29.32;26.19
51053;BME280;37093;37.716;-122.060;2022-07-09T00:24:23;100076.69;;;29.08;26.24
51053;BME280;37093;37.716;-122.060;2022-07-09T00:26:51;100080.87;;;29.06;26.46
51053;BME280;37093;37.716;-122.060;2022-07-09T00:29:20;100078.65;;;28.83;26.28
51053;BME280;37093;37.716;-122.060;2022-07-09T00:31:48;100078.64;;;28.58;26.59
51053;BME280;37093;37.716;-122.060;2022-07-09T00:34:17;100076.83;;;28.50;26.72
51053;BME280;37093;37.716;-122.060;2022-07-09T00:36:45;100072.05;;;28.40;26.73
51053;BME280;37093;37.716;-122.060;2022-07-09T00:39:14;100077.26;;;28.52;26.84
51053;BME280;37093;37.716;-122.060;2022-07-09T00:41:42;100080.25;;;28.52;26.67
51053;BME280;37093;37.716;-122.060;2022-07-09T00:44:11;100080.58;;;28.55;26.61
51053;BME280;37093;37.716;-122.060;2022-07-09T00:46:39;100079.51;;;28.54;26.80
51053;BME280;37093;37.716;-122.060;2022-07-09T00:49:08;100078.41;;;28.56;26.54
51053;BME280;37093;37.716;-122.060;2022-07-09T00:51:37;100076.07;;;28.69;26.58
51053;BME280;37093;37.716;-122.060;2022-07-09T00:54:07;100075.01;;;28.13;27.16
51053;BME280;37093;37.716;-122.060;2022-07-09T00:56:35;100076.65;;;27.92;27.61
51053;BME280;37093;37.716;-122.060;2022-07-09T00:59:04;100077.15;;;28.40;27.35
51053;BME280;37093;37.716;-122.060;2022-07-09T01:01:32;100077.53;;;28.02;27.62
51053;BME280;37093;37.716;-122.060;2022-07-09T01:04:01;100075.60;;;28.04;27.40
51053;BME280;37093;37.716;-122.060;2022-07-09T01:06:30;100074.88;;;28.07;27.56
51053;BME280;37093;37.716;-122.060;2022-07-09T01:08:58;100077.05;;;28.08;27.55
51053;BME280;37093;37.716;-122.060;2022-07-09T01:11:27;100072.39;;;27.95;27.62
51053;BME280;37093;37.716;-122.060;2022-07-09T01:13:55;100076.66;;;27.85;27.90
51053;BME280;37093;37.716;-122.060;2022-07-09T01:16:31;100074.68;;;27.72;28.18
51053;BME280;37093;37.716;-122.060;2022-07-09T01:19:00;100078.67;;;27.66;28.10
51053;BME280;37093;37.716;-122.060;2022-07-09T01:21:29;100077.31;;;27.53;28.22
51053;BME280;37093;37.716;-122.060;2022-07-09T01:23:58;100077.83;;;27.29;28.47
51053;BME280;37093;37.716;-122.060;2022-07-09T01:26:27;100079.47;;;27.20;28.72
51053;BME280;37093;37.716;-122.060;2022-07-09T01:28:55;100081.34;;;26.80;29.16
51053;BME280;37093;37.716;-122.060;2022-07-09T01:31:23;100082.79;;;27.27;28.46
51053;BME280;37093;37.716;-122.060;2022-07-09T01:33:52;100084.74;;;27.33;28.40
51053;BME280;37093;37.716;-122.060;2022-07-09T01:36:21;100086.12;;;27.14;28.63
51053;BME280;37093;37.716;-122.060;2022-07-09T01:38:49;100090.79;;;27.10;28.71
51053;BME280;37093;37.716;-122.060;2022-07-09T01:41:17;100091.07;;;26.84;29.09
51053;BME280;37093;37.716;-122.060;2022-07-09T01:43:46;100087.90;;;26.70;29.19
51053;BME280;37093;37.716;-122.060;2022-07-09T01:46:15;100092.52;;;27.03;29.34
51053;BME280;37093;37.716;-122.060;2022-07-09T01:48:43;100094.27;;;26.85;29.47
51053;BME280;37093;37.716;-122.060;2022-07-09T01:51:13;100095.73;;;26.51;29.65
51053;BME280;37093;37.716;-122.060;2022-07-09T01:53:41;100094.65;;;26.64;29.57
51053;BME280;37093;37.716;-122.060;2022-07-09T01:56:10;100100.71;;;26.78;29.59
51053;BME280;37093;37.716;-122.060;2022-07-09T01:58:39;100103.15;;;26.57;29.47
51053;BME280;37093;37.716;-122.060;2022-07-09T02:01:07;100102.38;;;26.75;29.42
51053;BME280;37093;37.716;-122.060;2022-07-09T02:03:35;100105.03;;;26.55;29.58
51053;BME280;37093;37.716;-122.060;2022-07-09T02:06:04;100109.78;;;26.53;29.65
51053;BME280;37093;37.716;-122.060;2022-07-09T02:08:33;100109.90;;;26.48;29.80
51053;BME280;37093;37.716;-122.060;2022-07-09T02:11:01;100112.37;;;26.22;30.11
51053;BME280;37093;37.716;-122.060;2022-07-09T02:13:30;100114.89;;;26.50;29.67
51053;BME280;37093;37.716;-122.060;2022-07-09T02:15:58;100117.84;;;26.31;29.78
51053;BME280;37093;37.716;-122.060;2022-07-09T02:18:27;100116.86;;;26.24;29.88
51053;BME280;37093;37.716;-122.060;2022-07-09T02:20:55;100115.59;;;26.41;29.86
51053;BME280;37093;37.716;-122.060;2022-07-09T02:23:24;100117.24;;;25.95;30.34
51053;BME280;37093;37.716;-122.060;2022-07-09T02:25:53;100120.43;;;26.01;30.14
51053;BME280;37093;37.716;-122.060;2022-07-09T02:28:22;100122.54;;;25.54;30.76
51053;BME280;37093;37.716;-122.060;2022-07-09T02:30:50;100125.03;;;25.62;30.72
51053;BME280;37093;37.716;-122.060;2022-07-09T02:33:18;100125.56;;;25.78;30.90
51053;BME280;37093;37.716;-122.060;2022-07-09T02:35:47;100126.79;;;25.72;30.70
51053;BME280;37093;37.716;-122.060;2022-07-09T02:38:15;100125.68;;;25.63;31.20
51053;BME280;37093;37.716;-122.060;2022-07-09T02:40:44;100126.86;;;25.28;31.10
51053;BME280;37093;37.716;-122.060;2022-07-09T02:43:12;100135.33;;;25.32;31.51
51053;BME280;37093;37.716;-122.060;2022-07-09T02:45:41;100136.05;;;25.05;31.58
51053;BME280;37093;37.716;-122.060;2022-07-09T02:48:09;100135.26;;;25.10;31.76
51053;BME280;37093;37.716;-122.060;2022-07-09T02:50:38;100139.65;;;25.22;31.79
51053;BME280;37093;37.716;-122.060;2022-07-09T02:53:06;100145.88;;;24.73;32.34
51053;BME280;37093;37.716;-122.060;2022-07-09T02:55:35;100145.09;;;24.98;31.94
51053;BME280;37093;37.716;-122.060;2022-07-09T02:58:03;100141.44;;;25.11;31.71
51053;BME280;37093;37.716;-122.060;2022-07-09T03:00:32;100142.55;;;24.90;31.76
51053;BME280;37093;37.716;-122.060;2022-07-09T03:03:00;100142.44;;;25.03;31.70
51053;BME280;37093;37.716;-122.060;2022-07-09T03:05:29;100146.85;;;25.02;31.59
51053;BME280;37093;37.716;-122.060;2022-07-09T03:07:57;100147.36;;;24.88;31.67
51053;BME280;37093;37.716;-122.060;2022-07-09T03:10:26;100151.18;;;24.84;31.89
51053;BME280;37093;37.716;-122.060;2022-07-09T03:12:54;100155.51;;;24.54;32.50
51053;BME280;37093;37.716;-122.060;2022-07-09T03:15:23;100163.46;;;24.64;32.68
51053;BME280;37093;37.716;-122.060;2022-07-09T03:17:51;100164.16;;;24.53;32.78
51053;BME280;37093;37.716;-122.060;2022-07-09T03:20:20;100165.93;;;24.36;33.16
51053;BME280;37093;37.716;-122.060;2022-07-09T03:22:48;100163.93;;;24.20;33.03
51053;BME280;37093;37.716;-122.060;2022-07-09T03:25:17;100167.07;;;24.04;32.73
51053;BME280;37093;37.716;-122.060;2022-07-09T03:27:46;100167.42;;;24.20;33.21
51053;BME280;37093;37.716;-122.060;2022-07-09T03:30:15;100166.79;;;23.46;33.68
51053;BME280;37093;37.716;-122.060;2022-07-09T03:32:43;100171.95;;;23.90;33.70
51053;BME280;37093;37.716;-122.060;2022-07-09T03:35:11;100174.66;;;23.98;33.75
51053;BME280;37093;37.716;-122.060;2022-07-09T03:37:40;100178.58;;;23.96;34.14
51053;BME280;37093;37.716;-122.060;2022-07-09T03:40:09;100177.41;;;23.91;33.85
51053;BME280;37093;37.716;-122.060;2022-07-09T03:42:38;100183.28;;;23.82;33.65
51053;BME280;37093;37.716;-122.060;2022-07-09T03:45:07;100182.62;;;23.89;33.65
51053;BME280;37093;37.716;-122.060;2022-07-09T03:47:36;100187.80;;;24.12;33.33
51053;BME280;37093;37.716;-122.060;2022-07-09T03:50:06;100186.15;;;24.63;33.73
51053;BME280;37093;37.716;-122.060;2022-07-09T03:52:34;100189.16;;;23.77;34.08
51053;BME280;37093;37.716;-122.060;2022-07-09T03:55:04;100189.33;;;23.78;33.95
51053;BME280;37093;37.716;-122.060;2022-07-09T03:57:32;100189.67;;;23.76;33.64
51053;BME280;37093;37.716;-122.060;2022-07-09T04:00:01;100192.11;;;24.00;33.73
51053;BME280;37093;37.716;-122.060;2022-07-09T04:02:29;100189.31;;;23.76;33.82
51053;BME280;37093;37.716;-122.060;2022-07-09T04:04:58;100191.34;;;23.78;33.91
51053;BME280;37093;37.716;-122.060;2022-07-09T04:07:26;100188.43;;;23.72;33.65
51053;BME280;37093;37.716;-122.060;2022-07-09T04:09:55;100194.70;;;23.98;34.07
51053;BME280;37093;37.716;-122.060;2022-07-09T04:12:23;100198.12;;;23.70;33.85
51053;BME280;37093;37.716;-122.060;2022-07-09T04:14:52;100200.51;;;23.72;33.79
51053;BME280;37093;37.716;-122.060;2022-07-09T04:17:21;100205.20;;;23.73;33.94
51053;BME280;37093;37.716;-122.060;2022-07-09T04:19:49;100209.37;;;23.74;34.16
51053;BME280;37093;37.716;-122.060;2022-07-09T04:22:17;100206.76;;;23.44;34.16
51053;BME280;37093;37.716;-122.060;2022-07-09T04:24:46;100213.62;;;23.78;34.16
51053;BME280;37093;37.716;-122.060;2022-07-09T04:27:15;100218.18;;;23.63;34.18
51053;BME280;37093;37.716;-122.060;2022-07-09T04:29:44;100219.21;;;23.43;34.60
51053;BME280;37093;37.716;-122.060;2022-07-09T04:32:12;100223.01;;;23.34;34.51
51053;BME280;37093;37.716;-122.060;2022-07-09T04:34:40;100228.77;;;23.41;34.75
51053;BME280;37093;37.716;-122.060;2022-07-09T04:37:09;100233.78;;;23.39;34.81
51053;BME280;37093;37.716;-122.060;2022-07-09T04:39:37;100237.08;;;23.33;35.02
51053;BME280;37093;37.716;-122.060;2022-07-09T04:42:06;100240.38;;;23.32;34.92
51053;BME280;37093;37.716;-122.060;2022-07-09T04:44:34;100243.20;;;23.19;35.20
51053;BME280;37093;37.716;-122.060;2022-07-09T04:47:03;100243.25;;;23.17;35.39
51053;BME280;37093;37.716;-122.060;2022-07-09T04:49:31;100257.13;;;23.04;35.35
51053;BME280;37093;37.716;-122.060;2022-07-09T04:52:00;100260.47;;;23.06;35.46
51053;BME280;37093;37.716;-122.060;2022-07-09T04:54:28;100267.29;;;23.08;35.35
51053;BME280;37093;37.716;-122.060;2022-07-09T04:56:57;100263.61;;;23.13;35.23
51053;BME280;37093;37.716;-122.060;2022-07-09T04:59:25;100267.91;;;23.08;35.25
51053;BME280;37093;37.716;-122.060;2022-07-09T05:01:54;100266.68;;;23.14;35.13
51053;BME280;37093;37.716;-122.060;2022-07-09T05:04:23;100269.00;;;22.92;35.14
51053;BME280;37093;37.716;-122.060;2022-07-09T05:06:52;100269.72;;;23.29;35.93
51053;BME280;37093;37.716;-122.060;2022-07-09T05:09:20;100272.71;;;22.53;36.24
51053;BME280;37093;37.716;-122.060;2022-07-09T05:11:49;100275.18;;;22.44;36.51
51053;BME280;37093;37.716;-122.060;2022-07-09T05:14:17;100277.14;;;22.44;36.72
51053;BME280;37093;37.716;-122.060;2022-07-09T05:16:46;100281.36;;;22.51;36.38
51053;BME280;37093;37.716;-122.060;2022-07-09T05:19:14;100286.62;;;22.56;36.13
51053;BME280;37093;37.716;-122.060;2022-07-09T05:21:43;100293.13;;;22.58;36.17
51053;BME280;37093;37.716;-122.060;2022-07-09T05:24:11;100289.04;;;22.36;36.67
51053;BME280;37093;37.716;-122.060;2022-07-09T05:26:40;100288.57;;;22.49;36.35
51053;BME280;37093;37.716;-122.060;2022-07-09T05:29:09;100289.16;;;22.41;36.69
51053;BME280;37093;37.716;-122.060;2022-07-09T05:31:37;100292.88;;;22.19;36.93
51053;BME280;37093;37.716;-122.060;2022-07-09T05:34:06;100299.53;;;22.24;36.60
51053;BME280;37093;37.716;-122.060;2022-07-09T05:36:35;100298.44;;;22.26;36.82
51053;BME280;37093;37.716;-122.060;2022-07-09T05:39:03;100299.13;;;22.69;36.89
51053;BME280;37093;37.716;-122.060;2022-07-09T05:41:32;100296.82;;;22.24;36.33
51053;BME280;37093;37.716;-122.060;2022-07-09T05:44:00;100297.77;;;22.21;36.77
51053;BME280;37093;37.716;-122.060;2022-07-09T05:46:29;100299.77;;;22.77;36.56
51053;BME280;37093;37.716;-122.060;2022-07-09T05:48:57;100303.99;;;22.36;36.43
51053;BME280;37093;37.716;-122.060;2022-07-09T05:51:26;100306.06;;;22.63;36.37
51053;BME280;37093;37.716;-122.060;2022-07-09T05:53:54;100301.08;;;22.32;36.56
51053;BME280;37093;37.716;-122.060;2022-07-09T05:56:23;100299.63;;;22.84;36.72
51053;BME280;37093;37.716;-122.060;2022-07-09T05:58:51;100301.22;;;22.56;36.46
51053;BME280;37093;37.716;-122.060;2022-07-09T06:01:20;100301.91;;;22.52;36.81
51053;BME280;37093;37.716;-122.060;2022-07-09T06:03:48;100300.61;;;22.47;36.73
51053;BME280;37093;37.716;-122.060;2022-07-09T06:06:17;100295.10;;;22.21;36.89
51053;BME280;37093;37.716;-122.060;2022-07-09T06:08:45;100295.87;;;22.61;36.95
51053;BME280;37093;37.716;-122.060;2022-07-09T06:11:14;100297.47;;;22.20;37.33
51053;BME280;37093;37.716;-122.060;2022-07-09T06:13:42;100296.56;;;22.10;37.69
51053;BME280;37093;37.716;-122.060;2022-07-09T06:16:11;100298.92;;;22.27;37.61
51053;BME280;37093;37.716;-122.060;2022-07-09T06:18:39;100300.68;;;22.26;37.50
51053;BME280;37093;37.716;-122.060;2022-07-09T06:21:08;100301.86;;;22.02;37.21
51053;BME280;37093;37.716;-122.060;2022-07-09T06:23:37;100302.37;;;22.01;37.52
51053;BME280;37093;37.716;-122.060;2022-07-09T06:26:05;100302.52;;;22.23;37.80
51053;BME280;37093;37.716;-122.060;2022-07-09T06:28:36;100301.99;;;21.73;37.46
51053;BME280;37093;37.716;-122.060;2022-07-09T06:31:05;100300.47;;;21.83;37.14
51053;BME280;37093;37.716;-122.060;2022-07-09T06:33:34;100297.88;;;22.39;37.46
51053;BME280;37093;37.716;-122.060;2022-07-09T06:36:03;100304.04;;;21.90;37.28
51053;BME280;37093;37.716;-122.060;2022-07-09T06:38:31;100304.38;;;21.96;36.90
51053;BME280;37093;37.716;-122.060;2022-07-09T06:41:00;100306.73;;;21.96;36.96
51053;BME280;37093;37.716;-122.060;2022-07-09T06:43:28;100301.45;;;21.98;37.04
51053;BME280;37093;37.716;-122.060;2022-07-09T06:45:57;100301.37;;;21.95;37.30
51053;BME280;37093;37.716;-122.060;2022-07-09T06:48:25;100295.77;;;22.07;37.45
51053;BME280;37093;37.716;-122.060;2022-07-09T06:50:54;100296.92;;;22.37;37.25
51053;BME280;37093;37.716;-122.060;2022-07-09T06:53:27;100297.18;;;21.90;37.24
51053;BME280;37093;37.716;-122.060;2022-07-09T06:55:55;100296.35;;;21.97;37.28
51053;BME280;37093;37.716;-122.060;2022-07-09T06:58:24;100293.88;;;21.94;37.36
51053;BME280;37093;37.716;-122.060;2022-07-09T07:01:14;100286.86;;;21.13;37.53
51053;BME280;37093;37.716;-122.060;2022-07-09T07:03:42;100283.99;;;21.15;36.33
51053;BME280;37093;37.716;-122.060;2022-07-09T07:06:10;100282.97;;;23.16;34.68
51053;BME280;37093;37.716;-122.060;2022-07-09T07:08:39;100283.99;;;23.55;35.12
51053;BME280;37093;37.716;-122.060;2022-07-09T07:11:07;100282.69;;;22.92;35.82
51053;BME280;37093;37.716;-122.060;2022-07-09T07:13:36;100279.87;;;22.65;36.72
51053;BME280;37093;37.716;-122.060;2022-07-09T07:16:05;100274.95;;;22.52;37.23
51053;BME280;37093;37.716;-122.060;2022-07-09T07:18:34;100276.70;;;22.36;37.15
51053;BME280;37093;37.716;-122.060;2022-07-09T07:21:03;100275.78;;;22.34;37.38
51053;BME280;37093;37.716;-122.060;2022-07-09T07:23:31;100275.45;;;22.06;37.68
51053;BME280;37093;37.716;-122.060;2022-07-09T07:26:00;100279.32;;;22.32;37.35
51053;BME280;37093;37.716;-122.060;2022-07-09T07:28:28;100280.30;;;22.05;37.37
51053;BME280;37093;37.716;-122.060;2022-07-09T07:30:56;100280.63;;;21.77;37.89
51053;BME280;37093;37.716;-122.060;2022-07-09T07:33:25;100283.25;;;21.67;37.51
51053;BME280;37093;37.716;-122.060;2022-07-09T07:35:54;100283.21;;;22.18;37.71
51053;BME280;37093;37.716;-122.060;2022-07-09T07:38:22;100283.17;;;22.01;37.74
51053;BME280;37093;37.716;-122.060;2022-07-09T07:40:50;100279.95;;;21.62;37.69
51053;BME280;37093;37.716;-122.060;2022-07-09T07:43:19;100280.61;;;22.14;37.58
51053;BME280;37093;37.716;-122.060;2022-07-09T07:45:47;100283.20;;;22.10;37.69
51053;BME280;37093;37.716;-122.060;2022-07-09T07:48:16;100285.51;;;21.97;37.60
51053;BME280;37093;37.716;-122.060;2022-07-09T07:50:45;100287.73;;;22.00;37.62
51053;BME280;37093;37.716;-122.060;2022-07-09T07:53:13;100286.43;;;21.83;37.36
51053;BME280;37093;37.716;-122.060;2022-07-09T07:55:42;100286.09;;;22.35;37.43
51053;BME280;37093;37.716;-122.060;2022-07-09T07:58:10;100286.58;;;22.36;37.76
51053;BME280;37093;37.716;-122.060;2022-07-09T08:00:38;100279.78;;;22.16;37.98
51053;BME280;37093;37.716;-122.060;2022-07-09T08:03:07;100282.62;;;22.11;37.81
51053;BME280;37093;37.716;-122.060;2022-07-09T08:05:35;100285.47;;;22.07;38.23
51053;BME280;37093;37.716;-122.060;2022-07-09T08:08:04;100285.68;;;22.13;38.14
51053;BME280;37093;37.716;-122.060;2022-07-09T08:10:32;100286.11;;;21.82;38.30
51053;BME280;37093;37.716;-122.060;2022-07-09T08:13:01;100287.24;;;22.05;38.28
51053;BME280;37093;37.716;-122.060;2022-07-09T08:15:30;100285.71;;;21.66;38.46
51053;BME280;37093;37.716;-122.060;2022-07-09T08:17:58;100287.05;;;21.86;38.44
51053;BME280;37093;37.716;-122.060;2022-07-09T08:20:26;100285.76;;;21.86;38.36
51053;BME280;37093;37.716;-122.060;2022-07-09T08:22:55;100286.20;;;21.68;38.82
51053;BME280;37093;37.716;-122.060;2022-07-09T08:25:24;100281.63;;;21.62;38.85
51053;BME280;37093;37.716;-122.060;2022-07-09T08:27:52;100275.24;;;21.75;38.53
51053;BME280;37093;37.716;-122.060;2022-07-09T08:30:21;100279.31;;;21.72;38.64
51053;BME280;37093;37.716;-122.060;2022-07-09T08:32:49;100281.18;;;21.52;38.53
51053;BME280;37093;37.716;-122.060;2022-07-09T08:35:17;100279.55;;;21.54;39.13
51053;BME280;37093;37.716;-122.060;2022-07-09T08:37:47;100282.15;;;21.35;38.66
51053;BME280;37093;37.716;-122.060;2022-07-09T08:40:15;100280.02;;;21.57;38.70
51053;BME280;37093;37.716;-122.060;2022-07-09T08:42:44;100285.22;;;21.35;38.95
51053;BME280;37093;37.716;-122.060;2022-07-09T08:45:13;100287.94;;;21.29;38.98
51053;BME280;37093;37.716;-122.060;2022-07-09T08:47:44;100285.24;;;21.39;38.93
51053;BME280;37093;37.716;-122.060;2022-07-09T08:50:13;100295.76;;;21.22;39.19
51053;BME280;37093;37.716;-122.060;2022-07-09T08:52:42;100291.05;;;21.60;38.97
51053;BME280;37093;37.716;-122.060;2022-07-09T08:55:11;100295.04;;;21.07;39.30
51053;BME280;37093;37.716;-122.060;2022-07-09T08:57:39;100290.93;;;21.45;39.00
51053;BME280;37093;37.716;-122.060;2022-07-09T09:00:08;100292.52;;;21.53;38.84
51053;BME280;37093;37.716;-122.060;2022-07-09T09:02:37;100291.39;;;21.62;38.65
51053;BME280;37093;37.716;-122.060;2022-07-09T09:05:09;100294.20;;;21.85;38.82
51053;BME280;37093;37.716;-122.060;2022-07-09T09:07:38;100292.10;;;21.74;38.58
51053;BME280;37093;37.716;-122.060;2022-07-09T09:10:07;100293.87;;;21.56;38.39
51053;BME280;37093;37.716;-122.060;2022-07-09T09:12:36;100294.64;;;21.58;38.36
51053;BME280;37093;37.716;-122.060;2022-07-09T09:15:06;100294.53;;;21.83;38.67
51053;BME280;37093;37.716;-122.060;2022-07-09T09:17:41;100296.58;;;21.84;38.81
51053;BME280;37093;37.716;-122.060;2022-07-09T09:20:14;100297.52;;;21.87;38.50
51053;BME280;37093;37.716;-122.060;2022-07-09T09:22:48;100295.39;;;21.65;38.66
51053;BME280;37093;37.716;-122.060;2022-07-09T09:25:18;100291.66;;;21.76;38.71
51053;BME280;37093;37.716;-122.060;2022-07-09T09:27:54;100293.25;;;21.74;38.70
51053;BME280;37093;37.716;-122.060;2022-07-09T09:30:24;100294.96;;;21.77;38.62
51053;BME280;37093;37.716;-122.060;2022-07-09T09:32:56;100292.91;;;21.80;38.61
51053;BME280;37093;37.716;-122.060;2022-07-09T09:35:26;100292.27;;;21.69;38.89
51053;BME280;37093;37.716;-122.060;2022-07-09T09:37:55;100291.10;;;21.63;39.08
51053;BME280;37093;37.716;-122.060;2022-07-09T09:40:25;100293.37;;;21.28;39.15
51053;BME280;37093;37.716;-122.060;2022-07-09T09:42:53;100296.94;;;21.25;39.67
51053;BME280;37093;37.716;-122.060;2022-07-09T09:45:22;100298.38;;;21.16;39.55
51053;BME280;37093;37.716;-122.060;2022-07-09T09:47:52;100299.56;;;21.51;39.83
51053;BME280;37093;37.716;-122.060;2022-07-09T09:50:22;100300.39;;;21.33;39.66
51053;BME280;37093;37.716;-122.060;2022-07-09T09:52:52;100296.00;;;21.51;39.64
51053;BME280;37093;37.716;-122.060;2022-07-09T09:55:22;100295.04;;;21.39;39.36
51053;BME280;37093;37.716;-122.060;2022-07-09T09:57:52;100297.83;;;21.39;39.51
51053;BME280;37093;37.716;-122.060;2022-07-09T10:00:21;100296.21;;;21.42;39.18
51053;BME280;37093;37.716;-122.060;2022-07-09T10:02:49;100297.20;;;21.24;39.23
51053;BME280;37093;37.716;-122.060;2022-07-09T10:05:18;100297.35;;;21.30;38.83
51053;BME280;37093;37.716;-122.060;2022-07-09T10:07:46;100297.90;;;21.46;39.23
51053;BME280;37093;37.716;-122.060;2022-07-09T10:10:19;100299.94;;;21.52;39.08
51053;BME280;37093;37.716;-122.060;2022-07-09T10:12:48;100298.41;;;21.30;39.18
51053;BME280;37093;37.716;-122.060;2022-07-09T10:15:25;100302.22;;;21.22;39.11
51053;BME280;37093;37.716;-122.060;2022-07-09T10:17:54;100307.05;;;21.26;39.61
51053;BME280;37093;37.716;-122.060;2022-07-09T10:20:32;100308.85;;;21.09;39.62
51053;BME280;37093;37.716;-122.060;2022-07-09T10:23:01;100308.07;;;21.15;39.45
51053;BME280;37093;37.716;-122.060;2022-07-09T10:25:30;100309.13;;;21.19;39.22
51053;BME280;37093;37.716;-122.060;2022-07-09T10:27:59;100309.72;;;21.26;39.32
51053;BME280;37093;37.716;-122.060;2022-07-09T10:30:29;100310.74;;;21.33;39.22
51053;BME280;37093;37.716;-122.060;2022-07-09T10:33:06;100312.23;;;21.45;39.49
51053;BME280;37093;37.716;-122.060;2022-07-09T10:35:45;100315.66;;;21.12;39.82
51053;BME280;37093;37.716;-122.060;2022-07-09T10:38:15;100316.87;;;21.14;39.62
51053;BME280;37093;37.716;-122.060;2022-07-09T10:40:45;100318.03;;;21.31;39.82
51053;BME280;37093;37.716;-122.060;2022-07-09T10:43:15;100317.29;;;21.15;39.70
51053;BME280;37093;37.716;-122.060;2022-07-09T10:45:44;100313.75;;;21.16;39.47
51053;BME280;37093;37.716;-122.060;2022-07-09T10:48:14;100314.65;;;21.33;39.74
51053;BME280;37093;37.716;-122.060;2022-07-09T10:50:43;100321.22;;;21.37;39.72
51053;BME280;37093;37.716;-122.060;2022-07-09T10:53:13;100318.85;;;21.46;39.59
51053;BME280;37093;37.716;-122.060;2022-07-09T10:55:43;100321.63;;;21.10;39.41
51053;BME280;37093;37.716;-122.060;2022-07-09T10:58:17;100319.10;;;21.29;39.66
51053;BME280;37093;37.716;-122.060;2022-07-09T11:00:54;100316.58;;;21.27;39.71
51053;BME280;37093;37.716;-122.060;2022-07-09T11:03:25;100315.45;;;21.13;39.55
51053;BME280;37093;37.716;-122.060;2022-07-09T11:05:54;100319.80;;;21.02;39.72
51053;BME280;37093;37.716;-122.060;2022-07-09T11:08:23;100316.69;;;21.09;39.69
51053;BME280;37093;37.716;-122.060;2022-07-09T11:10:51;100316.89;;;21.31;39.85
51053;BME280;37093;37.716;-122.060;2022-07-09T11:13:23;100316.68;;;21.05;39.63
51053;BME280;37093;37.716;-122.060;2022-07-09T11:15:58;100317.06;;;21.03;39.91
51053;BME280;37093;37.716;-122.060;2022-07-09T11:18:28;100314.67;;;21.57;39.54
51053;BME280;37093;37.716;-122.060;2022-07-09T11:20:56;100316.45;;;21.21;39.81
51053;BME280;37093;37.716;-122.060;2022-07-09T11:23:25;100319.69;;;21.17;39.89
51053;BME280;37093;37.716;-122.060;2022-07-09T11:25:53;100317.93;;;21.18;40.02
51053;BME280;37093;37.716;-122.060;2022-07-09T11:28:23;100320.33;;;21.03;39.78
51053;BME280;37093;37.716;-122.060;2022-07-09T11:31:01;100319.63;;;21.29;39.74
51053;BME280;37093;37.716;-122.060;2022-07-09T11:33:31;100325.07;;;21.07;39.68
51053;BME280;37093;37.716;-122.060;2022-07-09T11:35:59;100322.26;;;20.92;39.89
51053;BME280;37093;37.716;-122.060;2022-07-09T11:38:28;100320.18;;;21.00;40.25
51053;BME280;37093;37.716;-122.060;2022-07-09T11:41:00;100325.84;;;20.61;40.55
51053;BME280;37093;37.716;-122.060;2022-07-09T11:43:28;100325.72;;;21.22;40.58
51053;BME280;37093;37.716;-122.060;2022-07-09T11:45:57;100327.16;;;20.86;40.52
51053;BME280;37093;37.716;-122.060;2022-07-09T11:48:25;100331.83;;;20.91;40.65
51053;BME280;37093;37.716;-122.060;2022-07-09T11:50:54;100332.81;;;20.74;40.42
51053;BME280;37093;37.716;-122.060;2022-07-09T11:53:23;100336.88;;;21.07;40.10
51053;BME280;37093;37.716;-122.060;2022-07-09T11:55:59;100336.18;;;21.12;39.89
51053;BME280;37093;37.716;-122.060;2022-07-09T11:58:28;100339.35;;;21.23;39.78
51053;BME280;37093;37.716;-122.060;2022-07-09T12:00:56;100339.55;;;21.29;39.33
51053;BME280;37093;37.716;-122.060;2022-07-09T12:03:25;100343.37;;;21.32;39.22
51053;BME280;37093;37.716;-122.060;2022-07-09T12:05:54;100345.85;;;21.12;39.28
51053;BME280;37093;37.716;-122.060;2022-07-09T12:08:27;100343.50;;;20.94;39.57
51053;BME280;37093;37.716;-122.060;2022-07-09T12:10:57;100350.54;;;21.19;39.78
51053;BME280;37093;37.716;-122.060;2022-07-09T12:13:25;100352.96;;;20.67;40.61
51053;BME280;37093;37.716;-122.060;2022-07-09T12:15:54;100354.47;;;21.05;39.89
51053;BME280;37093;37.716;-122.060;2022-07-09T12:18:22;100357.86;;;20.93;39.69
51053;BME280;37093;37.716;-122.060;2022-07-09T12:20:51;100365.08;;;21.21;39.35
51053;BME280;37093;37.716;-122.060;2022-07-09T12:23:19;100366.18;;;21.01;39.21
51053;BME280;37093;37.716;-122.060;2022-07-09T12:25:48;100369.49;;;21.20;39.40
51053;BME280;37093;37.716;-122.060;2022-07-09T12:28:16;100372.33;;;20.93;39.18
51053;BME280;37093;37.716;-122.060;2022-07-09T12:30:45;100372.26;;;20.91;38.96